createdAt,value
2022-09-10T00:01:49.258Z,99759.31
2022-09-10T00:04:17.318Z,99753.31
2022-09-10T00:06:44.748Z,99747.34
2022-09-10T00:09:12.951Z,99745.53
2022-09-10T00:11:40.676Z,99751.50
2022-09-10T00:14:11.540Z,99757.88
2022-09-10T00:16:38.218Z,99754.13
2022-09-10T00:19:05.049Z,99757.75
2022-09-10T00:21:31.765Z,99752.97
2022-09-10T00:23:58.694Z,99753.31
2022-09-10T00:26:28.250Z,99748.63
2022-09-10T00:28:56.936Z,99751.72
2022-09-10T00:31:24.686Z,99747.69
2022-09-10T00:33:51.936Z,99746.78
2022-09-10T00:36:25.667Z,99740.53
2022-09-10T00:38:54.221Z,99732.50
2022-09-10T00:41:23.287Z,99729.50
2022-09-10T00:44:05.562Z,99727.22
2022-09-10T00:46:49.032Z,99728.22
2022-09-10T00:49:19.807Z,99730.63
2022-09-10T00:51:48.458Z,99730.28
2022-09-10T00:54:18.185Z,99728.13
2022-09-10T00:56:45.408Z,99720.22
2022-09-10T00:59:16.906Z,99720.69
2022-09-10T01:01:43.819Z,99725.19
2022-09-10T01:04:10.903Z,99720.16
2022-09-10T01:06:44.666Z,99727.84
2022-09-10T01:09:13.319Z,99722.25
2022-09-10T01:12:00.146Z,99713.19
2022-09-10T01:14:50.111Z,99709.66
2022-09-10T01:17:58.722Z,99709.34
2022-09-10T01:20:46.163Z,99695.44
2022-09-10T01:23:31.228Z,99689.44
2022-09-10T01:26:15.620Z,99677.59
2022-09-10T01:28:51.962Z,99671.63
2022-09-10T01:31:47.814Z,99666.81
2022-09-10T01:34:23.544Z,99658.06
2022-09-10T01:36:53.871Z,99664.19
2022-09-10T01:39:21.967Z,99670.00
2022-09-10T01:41:48.821Z,99668.88
2022-09-10T01:44:39.999Z,99665.78
2022-09-10T01:47:45.538Z,99657.66
2022-09-10T01:50:34.111Z,99655.00
2022-09-10T01:53:21.800Z,99655.28
2022-09-10T01:55:51.335Z,99664.94
2022-09-10T01:58:36.114Z,99671.47
2022-09-10T02:01:02.708Z,99673.25
2022-09-10T02:03:31.875Z,99658.09
2022-09-10T02:06:00.472Z,99637.84
2022-09-10T02:08:31.356Z,99640.31
2022-09-10T02:11:00.697Z,99633.34
2022-09-10T02:13:30.827Z,99633.72
2022-09-10T02:15:57.562Z,99624.63
2022-09-10T02:18:25.845Z,99619.38
2022-09-10T02:20:55.224Z,99611.59
2022-09-10T02:23:26.482Z,99608.25
2022-09-10T02:25:53.129Z,99612.84
2022-09-10T02:28:20.496Z,99626.47
2022-09-10T02:30:47.113Z,99626.66
2022-09-10T02:33:13.999Z,99627.97
2022-09-10T02:35:40.585Z,99620.78
2022-09-10T02:38:07.510Z,99614.38
2022-09-10T02:40:34.771Z,99625.31
2022-09-10T02:43:01.369Z,99627.88
2022-09-10T02:45:28.025Z,99630.50
2022-09-10T02:47:54.707Z,99622.81
2022-09-10T02:50:21.277Z,99615.47
2022-09-10T02:52:47.901Z,99610.28
2022-09-10T02:55:14.488Z,99604.53
2022-09-10T02:57:41.097Z,99599.69
2022-09-10T03:00:08.814Z,99601.53
2022-09-10T03:02:35.418Z,99609.06
2022-09-10T03:05:02.211Z,99616.16
2022-09-10T03:07:28.833Z,99620.63
2022-09-10T03:09:55.448Z,99628.38
2022-09-10T03:12:22.030Z,99638.38
2022-09-10T03:14:48.634Z,99639.03
2022-09-10T03:17:15.368Z,99632.19
2022-09-10T03:19:41.931Z,99625.66
2022-09-10T03:22:09.028Z,99636.56
2022-09-10T03:24:35.594Z,99640.88
2022-09-10T03:27:02.150Z,99641.34
2022-09-10T03:29:28.849Z,99645.38
2022-09-10T03:31:55.756Z,99652.34
2022-09-10T03:34:22.322Z,99638.34
2022-09-10T03:36:48.983Z,99635.00
2022-09-10T03:39:15.844Z,99634.53
2022-09-10T03:41:42.654Z,99632.44
2022-09-10T03:44:09.241Z,99630.78
2022-09-10T03:46:35.831Z,99620.16
2022-09-10T03:49:02.541Z,99621.72
2022-09-10T03:51:29.512Z,99629.13
2022-09-10T03:53:56.101Z,99634.56
2022-09-10T03:56:23.064Z,99636.78
2022-09-10T03:58:49.658Z,99642.47
2022-09-10T04:01:17.139Z,99638.03
2022-09-10T04:03:44.121Z,99630.34
2022-09-10T04:06:15.324Z,99624.94
2022-09-10T04:08:42.613Z,99626.72
2022-09-10T04:11:09.867Z,99621.75
2022-09-10T04:13:36.461Z,99630.72
2022-09-10T04:16:03.165Z,99634.03
2022-09-10T04:18:29.893Z,99625.56
2022-09-10T04:20:56.473Z,99616.97
2022-09-10T04:23:23.113Z,99640.28
2022-09-10T04:25:49.851Z,99633.44
2022-09-10T04:28:16.644Z,99644.91
2022-09-10T04:30:44.282Z,99653.28
2022-09-10T04:33:11.194Z,99647.97
2022-09-10T04:35:38.590Z,99643.19
2022-09-10T04:38:05.987Z,99647.22
2022-09-10T04:40:32.538Z,99643.50
2022-09-10T04:42:59.124Z,99637.59
2022-09-10T04:45:25.777Z,99640.19
2022-09-10T04:47:52.623Z,99651.38
2022-09-10T04:50:19.208Z,99660.06
2022-09-10T04:52:45.849Z,99659.94
2022-09-10T04:55:12.429Z,99659.06
2022-09-10T04:57:39.052Z,99649.28
2022-09-10T05:00:06.816Z,99648.25
2022-09-10T05:02:33.615Z,99649.91
2022-09-10T05:05:00.316Z,99650.53
2022-09-10T05:07:26.942Z,99656.53
2022-09-10T05:09:53.688Z,99656.34
2022-09-10T05:12:20.277Z,99653.44
2022-09-10T05:14:46.854Z,99651.63
2022-09-10T05:17:13.515Z,99648.56
2022-09-10T05:19:40.079Z,99658.25
2022-09-10T05:22:07.666Z,99653.94
2022-09-10T05:24:34.272Z,99651.88
2022-09-10T05:27:00.846Z,99649.16
2022-09-10T05:29:27.614Z,99648.63
2022-09-10T05:31:54.227Z,99638.91
2022-09-10T05:34:20.854Z,99648.59
2022-09-10T05:36:47.482Z,99652.44
2022-09-10T05:39:14.104Z,99655.53
2022-09-10T05:41:40.664Z,99656.97
2022-09-10T05:44:07.224Z,99661.84
2022-09-10T05:46:33.801Z,99668.34
2022-09-10T05:49:00.400Z,99666.63
2022-09-10T05:51:27.206Z,99662.72
2022-09-10T05:53:53.798Z,99667.91
2022-09-10T05:56:20.457Z,99663.63
2022-09-10T05:58:47.085Z,99670.38
2022-09-10T06:01:13.665Z,99672.16
2022-09-10T06:03:40.265Z,99667.56
2022-09-10T06:06:07.354Z,99671.59
2022-09-10T06:08:34.697Z,99663.53
2022-09-10T06:11:04.405Z,99659.38
2022-09-10T06:13:32.400Z,99668.41
2022-09-10T06:15:59.223Z,99666.91
2022-09-10T06:18:25.988Z,99674.72
2022-09-10T06:21:11.983Z,99674.44
2022-09-10T06:23:38.591Z,99669.78
2022-09-10T06:26:07.846Z,99667.34
2022-09-10T06:28:35.116Z,99674.34
2022-09-10T06:31:02.004Z,99674.50
2022-09-10T06:33:28.621Z,99666.91
2022-09-10T06:35:56.905Z,99667.78
2022-09-10T06:38:24.014Z,99666.38
2022-09-10T06:40:54.610Z,99665.44
2022-09-10T06:43:22.611Z,99668.44
2022-09-10T06:45:58.355Z,99658.78
2022-09-10T06:48:38.685Z,99664.22
2022-09-10T06:51:09.276Z,99656.31
2022-09-10T06:53:37.201Z,99663.16
2022-09-10T06:56:05.412Z,99671.34
2022-09-10T06:58:33.130Z,99677.44
2022-09-10T07:01:11.922Z,99685.00
2022-09-10T07:03:38.513Z,99685.47
2022-09-10T07:06:10.680Z,99685.19
2022-09-10T07:08:37.481Z,99693.16
2022-09-10T07:11:06.531Z,99695.81
2022-09-10T07:13:35.299Z,99700.25
2022-09-10T07:16:02.078Z,99693.75
2022-09-10T07:18:28.742Z,99689.91
2022-09-10T07:21:12.961Z,99692.78
2022-09-10T07:23:40.019Z,99694.28
2022-09-10T07:26:12.948Z,99696.19
2022-09-10T07:28:40.934Z,99697.03
2022-09-10T07:31:19.506Z,99706.25
2022-09-10T07:33:46.552Z,99710.00
2022-09-10T07:36:14.468Z,99708.56
2022-09-10T07:38:42.065Z,99711.94
2022-09-10T07:41:11.605Z,99715.25
2022-09-10T07:43:39.536Z,99713.16
2022-09-10T07:46:07.014Z,99725.88
2022-09-10T07:48:33.771Z,99722.88
2022-09-10T07:51:05.527Z,99730.44
2022-09-10T07:53:32.339Z,99735.56
2022-09-10T07:56:03.563Z,99741.44
2022-09-10T07:58:31.577Z,99739.16
2022-09-10T08:01:01.692Z,99747.03
2022-09-10T08:03:29.519Z,99756.66
2022-09-10T08:06:01.058Z,99751.38
2022-09-10T08:08:31.769Z,99754.13
2022-09-10T08:11:12.071Z,99752.66
2022-09-10T08:13:44.447Z,99751.03
2022-09-10T08:16:13.914Z,99754.69
2022-09-10T08:18:41.279Z,99755.00
2022-09-10T08:21:08.174Z,99751.09
2022-09-10T08:23:35.577Z,99747.13
2022-09-10T08:26:02.146Z,99747.50
2022-09-10T08:28:28.741Z,99751.59
2022-09-10T08:31:08.963Z,99746.28
2022-09-10T08:33:36.605Z,99742.53
2022-09-10T08:36:05.134Z,99753.88
2022-09-10T08:38:36.952Z,99753.38
2022-09-10T08:41:45.077Z,99761.38
2022-09-10T08:44:31.044Z,99756.06
2022-09-10T08:47:06.704Z,99763.44
2022-09-10T08:49:48.525Z,99763.47
2022-09-10T08:52:15.038Z,99765.00
2022-09-10T08:54:54.099Z,99760.31
2022-09-10T08:57:32.325Z,99759.28
2022-09-10T09:00:01.948Z,99757.47
2022-09-10T09:02:50.298Z,99757.19
2022-09-10T09:05:22.929Z,99753.16
2022-09-10T09:07:51.396Z,99748.59
2022-09-10T09:10:47.158Z,99748.81
2022-09-10T09:13:26.029Z,99749.34
2022-09-10T09:16:24.868Z,99746.13
2022-09-10T09:19:22.122Z,99748.16
2022-09-10T09:21:51.978Z,99749.34
2022-09-10T09:24:42.719Z,99746.91
2022-09-10T09:27:16.213Z,99752.34
2022-09-10T09:29:54.727Z,99754.81
2022-09-10T09:32:22.569Z,99755.78
2022-09-10T09:35:13.807Z,99749.41
2022-09-10T09:37:42.199Z,99753.69
2022-09-10T09:40:22.283Z,99760.44
2022-09-10T09:43:19.595Z,99744.94
2022-09-10T09:45:46.267Z,99745.34
2022-09-10T09:48:16.211Z,99746.91
2022-09-10T09:50:45.867Z,99743.81
2022-09-10T09:53:26.197Z,99750.38
2022-09-10T09:55:58.812Z,99740.66
2022-09-10T09:58:25.340Z,99748.03
2022-09-10T10:01:04.313Z,99741.84
2022-09-10T10:03:58.286Z,99739.88
2022-09-10T10:06:31.531Z,99729.34
2022-09-10T10:09:01.907Z,99731.03
2022-09-10T10:11:59.454Z,99728.03
2022-09-10T10:14:31.718Z,99722.72
2022-09-10T10:17:00.895Z,99724.25
2022-09-10T10:19:33.740Z,99729.28
2022-09-10T10:22:15.494Z,99721.69
2022-09-10T10:24:42.896Z,99714.47
2022-09-10T10:27:20.102Z,99715.66
2022-09-10T10:30:16.739Z,99712.22
2022-09-10T10:32:49.791Z,99714.41
2022-09-10T10:36:01.216Z,99716.03
2022-09-10T10:38:34.502Z,99714.78
2022-09-10T10:41:19.494Z,99711.38
2022-09-10T10:44:13.381Z,99710.09
2022-09-10T10:46:58.461Z,99711.84
2022-09-10T10:49:35.665Z,99709.38
2022-09-10T10:52:02.194Z,99712.72
2022-09-10T10:55:03.507Z,99699.28
2022-09-10T10:57:49.199Z,99700.56
2022-09-10T11:00:19.127Z,99696.34
2022-09-10T11:03:02.862Z,99699.63
2022-09-10T11:05:46.801Z,99687.13
2022-09-10T11:08:50.212Z,99699.59
2022-09-10T11:11:22.369Z,99692.16
2022-09-10T11:14:25.007Z,99690.06
2022-09-10T11:17:14.617Z,99677.03
2022-09-10T11:20:17.174Z,99682.53
2022-09-10T11:22:48.496Z,99690.00
2022-09-10T11:25:27.027Z,99694.41
2022-09-10T11:28:20.152Z,99684.38
2022-09-10T11:30:55.245Z,99685.84
2022-09-10T11:33:44.659Z,99681.84
2022-09-10T11:36:22.290Z,99683.63
2022-09-10T11:39:25.507Z,99679.63
2022-09-10T11:41:54.600Z,99686.72
2022-09-10T11:44:44.848Z,99684.97
2022-09-10T11:47:32.771Z,99683.03
2022-09-10T11:50:30.000Z,99683.06
2022-09-10T11:53:00.955Z,99676.38
2022-09-10T11:55:40.578Z,99679.19
2022-09-10T11:58:46.001Z,99671.53
2022-09-10T12:01:31.113Z,99685.97
2022-09-10T12:04:29.295Z,99678.84
2022-09-10T12:06:59.022Z,99681.00
2022-09-10T12:09:51.674Z,99682.97
2022-09-10T12:12:27.580Z,99680.47
2022-09-10T12:14:54.275Z,99680.25
2022-09-10T12:17:34.428Z,99673.28
2022-09-10T12:20:04.776Z,99676.00
2022-09-10T12:22:31.339Z,99675.56
2022-09-10T12:25:25.884Z,99672.19
2022-09-10T12:27:58.396Z,99670.22
2022-09-10T12:30:24.917Z,99667.59
2022-09-10T12:32:52.265Z,99663.38
2022-09-10T12:35:31.116Z,99673.88
2022-09-10T12:38:35.382Z,99658.75
2022-09-10T12:41:03.270Z,99661.69
2022-09-10T12:43:39.136Z,99665.38
2022-09-10T12:46:08.877Z,99665.78
2022-09-10T12:48:48.124Z,99666.78
2022-09-10T12:51:17.662Z,99658.25
2022-09-10T12:54:09.476Z,99655.22
2022-09-10T12:56:39.022Z,99659.75
2022-09-10T12:59:36.354Z,99658.75
2022-09-10T13:02:03.881Z,99655.88
2022-09-10T13:04:36.309Z,99660.13
2022-09-10T13:07:24.201Z,99646.38
2022-09-10T13:10:21.732Z,99644.88
2022-09-10T13:12:53.731Z,99641.88
2022-09-10T13:15:23.431Z,99648.97
2022-09-10T13:17:49.995Z,99644.72
2022-09-10T13:20:19.290Z,99648.53
2022-09-10T13:23:01.729Z,99649.94
2022-09-10T13:25:45.969Z,99651.50
2022-09-10T13:28:41.597Z,99650.28
2022-09-10T13:31:08.265Z,99661.25
2022-09-10T13:33:49.761Z,99648.91
2022-09-10T13:36:25.141Z,99646.56
2022-09-10T13:39:15.000Z,99638.06
2022-09-10T13:41:59.977Z,99639.91
2022-09-10T13:45:05.305Z,99636.50
2022-09-10T13:47:47.884Z,99634.94
2022-09-10T13:50:18.405Z,99644.16
2022-09-10T13:52:49.760Z,99643.84
2022-09-10T13:55:20.504Z,99638.09
2022-09-10T13:57:50.322Z,99646.09
2022-09-10T14:00:23.968Z,99634.25
2022-09-10T14:02:54.213Z,99632.75
2022-09-10T14:05:51.891Z,99625.25
2022-09-10T14:08:18.398Z,99626.50
2022-09-10T14:10:59.878Z,99622.94
2022-09-10T14:13:47.390Z,99633.44
2022-09-10T14:16:30.123Z,99630.81
2022-09-10T14:19:01.500Z,99630.56
2022-09-10T14:21:28.736Z,99626.06
2022-09-10T14:23:57.922Z,99627.19
2022-09-10T14:26:30.035Z,99629.16
2022-09-10T14:29:24.940Z,99624.59
2022-09-10T14:31:51.567Z,99627.16
2022-09-10T14:34:30.740Z,99626.34
2022-09-10T14:36:57.744Z,99619.72
2022-09-10T14:39:25.211Z,99623.44
2022-09-10T14:42:09.495Z,99618.97
2022-09-10T14:44:41.137Z,99625.47
2022-09-10T14:47:10.467Z,99616.97
2022-09-10T14:49:39.467Z,99626.69
2022-09-10T14:52:06.459Z,99630.97
2022-09-10T14:54:34.491Z,99615.91
2022-09-10T14:57:07.318Z,99619.66
2022-09-10T14:59:36.465Z,99629.50
2022-09-10T15:02:14.182Z,99628.25
2022-09-10T15:04:40.819Z,99621.53
2022-09-10T15:07:09.808Z,99624.06
2022-09-10T15:09:36.402Z,99620.03
2022-09-10T15:12:27.856Z,99627.84
2022-09-10T15:14:55.513Z,99633.03
2022-09-10T15:17:22.151Z,99631.06
2022-09-10T15:19:48.720Z,99630.75
2022-09-10T15:22:24.162Z,99631.50
2022-09-10T15:25:10.176Z,99636.50
2022-09-10T15:27:37.657Z,99641.66
2022-09-10T15:30:05.045Z,99637.28
2022-09-10T15:32:31.658Z,99644.16
2022-09-10T15:34:58.217Z,99650.97
2022-09-10T15:37:24.781Z,99644.00
2022-09-10T15:39:51.372Z,99654.53
2022-09-10T15:42:18.143Z,99651.09
2022-09-10T15:44:44.709Z,99659.22
2022-09-10T15:47:11.278Z,99655.47
2022-09-10T15:49:37.875Z,99661.06
2022-09-10T15:52:04.450Z,99662.50
2022-09-10T15:54:31.051Z,99677.00
2022-09-10T15:59:24.262Z,99673.13
2022-09-10T16:01:50.860Z,99673.50
2022-09-10T16:04:17.437Z,99688.53
2022-09-10T16:06:44.026Z,99684.81
2022-09-10T16:09:12.658Z,99685.91
2022-09-10T16:11:41.350Z,99690.66
2022-09-10T16:14:11.405Z,99692.13
2022-09-10T16:16:38.677Z,99693.72
2022-09-10T16:19:05.684Z,99697.00
2022-09-10T16:21:35.391Z,99695.56
2022-09-10T16:24:03.017Z,99697.13
2022-09-10T16:26:36.195Z,99703.47
2022-09-10T16:29:05.766Z,99696.91
2022-09-10T16:31:37.277Z,99710.03
2022-09-10T16:34:05.985Z,99704.44
2022-09-10T16:36:35.285Z,99701.97
2022-09-10T16:39:01.958Z,99698.94
2022-09-10T16:41:29.367Z,99702.25
2022-09-10T16:43:59.745Z,99699.19
2022-09-10T16:46:27.972Z,99710.75
2022-09-10T16:48:55.660Z,99700.75
2022-09-10T16:51:24.271Z,99699.56
2022-09-10T16:53:56.510Z,99704.03
2022-09-10T16:56:24.904Z,99706.59
2022-09-10T16:58:51.707Z,99705.47
2022-09-10T17:01:18.315Z,99708.28
2022-09-10T17:03:50.037Z,99714.97
2022-09-10T17:06:19.396Z,99708.97
2022-09-10T17:08:46.711Z,99723.53
2022-09-10T17:11:15.069Z,99723.25
2022-09-10T17:13:42.251Z,99715.56
2022-09-10T17:16:16.171Z,99718.19
2022-09-10T17:18:44.399Z,99723.53
2022-09-10T17:21:10.990Z,99728.13
2022-09-10T17:23:37.672Z,99734.09
2022-09-10T17:26:09.034Z,99736.34
2022-09-10T17:28:38.970Z,99729.69
2022-09-10T17:31:07.946Z,99745.13
2022-09-10T17:33:34.583Z,99744.53
2022-09-10T17:36:03.642Z,99753.13
2022-09-10T17:38:31.490Z,99747.69
2022-09-10T17:41:00.906Z,99754.25
2022-09-10T17:43:30.579Z,99751.72
2022-09-10T17:45:57.375Z,99759.41
2022-09-10T17:48:28.010Z,99756.22
2022-09-10T17:50:55.042Z,99764.56
2022-09-10T17:53:21.764Z,99765.44
2022-09-10T17:55:48.356Z,99770.72
2022-09-10T17:58:15.080Z,99776.53
2022-09-10T18:00:44.267Z,99779.09
2022-09-10T18:03:12.426Z,99783.44
2022-09-10T18:05:40.163Z,99787.00
2022-09-10T18:08:07.045Z,99793.47
2022-09-10T18:10:34.453Z,99792.13
2022-09-10T18:13:01.114Z,99793.16
2022-09-10T18:15:29.127Z,99799.16
2022-09-10T18:17:57.216Z,99805.16
2022-09-10T18:20:27.051Z,99805.34
2022-09-10T18:22:54.480Z,99804.88
2022-09-10T18:25:22.055Z,99813.53
2022-09-10T18:27:48.693Z,99808.22
2022-09-10T18:30:15.265Z,99819.75
2022-09-10T18:32:41.826Z,99815.22
2022-09-10T18:35:08.694Z,99813.31
2022-09-10T18:37:35.283Z,99822.47
2022-09-10T18:40:02.124Z,99817.84
2022-09-10T18:42:28.769Z,99816.56
2022-09-10T18:44:55.370Z,99815.38
2022-09-10T18:47:41.364Z,99816.91
2022-09-10T18:50:08.954Z,99817.19
2022-09-10T18:52:35.598Z,99806.28
2022-09-10T18:55:02.154Z,99806.84
2022-09-10T18:57:28.722Z,99810.66
2022-09-10T18:59:55.329Z,99809.81
2022-09-10T19:02:22.127Z,99802.41
2022-09-10T19:05:09.704Z,99796.97
2022-09-10T19:07:35.595Z,99806.09
2022-09-10T19:10:02.168Z,99796.38
2022-09-10T19:12:28.802Z,99803.56
2022-09-10T19:14:55.374Z,99789.59
2022-09-10T19:17:22.013Z,99789.75
2022-09-10T19:19:48.567Z,99791.44
2022-09-10T19:22:15.113Z,99788.34
2022-09-10T19:24:54.650Z,99789.38
2022-09-10T19:27:22.285Z,99784.88
2022-09-10T19:29:48.938Z,99786.97
2022-09-10T19:32:15.564Z,99774.53
2022-09-10T19:34:42.158Z,99785.47
2022-09-10T19:37:08.761Z,99784.47
2022-09-10T19:39:35.383Z,99785.19
2022-09-10T19:42:01.962Z,99790.06
2022-09-10T19:44:28.680Z,99790.16
2022-09-10T19:46:55.351Z,99785.13
2022-09-10T19:49:21.946Z,99785.13
2022-09-10T19:51:48.574Z,99781.91
2022-09-10T19:54:15.156Z,99781.19
2022-09-10T19:56:42.473Z,99786.75
2022-09-10T19:59:09.520Z,99784.47
2022-09-10T20:01:41.357Z,99787.03
2022-09-10T20:04:10.204Z,99787.31
2022-09-10T20:06:38.224Z,99782.47
2022-09-10T20:09:06.751Z,99780.34
2022-09-10T20:11:34.667Z,99790.34
2022-09-10T20:14:04.066Z,99793.28
2022-09-10T20:16:30.977Z,99795.78
2022-09-10T20:18:57.710Z,99789.88
2022-09-10T20:21:27.148Z,99799.19
2022-09-10T20:23:55.663Z,99810.47
2022-09-10T20:26:23.583Z,99806.44
2022-09-10T20:29:05.118Z,99810.78
2022-09-10T20:31:34.563Z,99804.16
2022-09-10T20:34:04.111Z,99807.34
2022-09-10T20:36:32.075Z,99799.94
2022-09-10T20:38:58.748Z,99804.31
2022-09-10T20:41:25.951Z,99811.75
2022-09-10T20:43:53.511Z,99812.00
2022-09-10T20:46:22.357Z,99819.22
2022-09-10T20:48:50.722Z,99818.75
2022-09-10T20:51:18.771Z,99824.66
2022-09-10T20:53:45.598Z,99826.16
2022-09-10T20:56:15.097Z,99833.09
2022-09-10T20:58:42.046Z,99828.34
2022-09-10T21:01:11.567Z,99832.97
2022-09-10T21:03:39.875Z,99830.97
2022-09-10T21:06:07.317Z,99829.16
2022-09-10T21:08:34.955Z,99827.81
2022-09-10T21:11:07.221Z,99817.81
2022-09-10T21:13:34.995Z,99825.53
2022-09-10T21:16:12.404Z,99822.19
2022-09-10T21:18:39.889Z,99820.34
2022-09-10T21:21:12.638Z,99817.28
2022-09-10T21:23:47.117Z,99820.47
2022-09-10T21:26:16.050Z,99816.03
2022-09-10T21:28:42.762Z,99815.44
2022-09-10T21:31:09.865Z,99814.63
2022-09-10T21:33:37.205Z,99826.81
2022-09-10T21:36:15.530Z,99814.94
2022-09-10T21:38:46.257Z,99808.41
2022-09-10T21:41:15.760Z,99809.41
2022-09-10T21:43:44.261Z,99821.09
2022-09-10T21:46:12.098Z,99822.88
2022-09-10T21:48:38.869Z,99823.97
2022-09-10T21:51:08.007Z,99816.66
2022-09-10T21:53:35.383Z,99828.94
2022-09-10T21:56:03.963Z,99825.53
2022-09-10T21:58:33.459Z,99829.56
2022-09-10T22:01:00.179Z,99825.28
2022-09-10T22:03:32.277Z,99825.56
2022-09-10T22:06:10.142Z,99825.47
2022-09-10T22:08:39.069Z,99837.19
2022-09-10T22:11:14.982Z,99837.72
2022-09-10T22:13:42.910Z,99837.47
2022-09-10T22:16:13.097Z,99833.88
2022-09-10T22:18:39.827Z,99842.44
2022-09-10T22:21:07.023Z,99841.66
2022-09-10T22:23:36.737Z,99838.66
2022-09-10T22:26:09.897Z,99850.31
2022-09-10T22:28:37.281Z,99864.09
2022-09-10T22:31:12.824Z,99862.72
2022-09-10T22:33:41.529Z,99857.84
2022-09-10T22:36:18.897Z,99862.53
2022-09-10T22:38:54.148Z,99860.50
2022-09-10T22:41:20.869Z,99865.13
2022-09-10T22:43:47.453Z,99858.63
2022-09-10T22:46:14.091Z,99855.88
2022-09-10T22:48:42.629Z,99858.63
2022-09-10T22:51:12.357Z,99867.25
2022-09-10T22:53:41.294Z,99863.25
2022-09-10T22:56:08.611Z,99865.19
2022-09-10T22:58:35.643Z,99860.16
2022-09-10T23:01:08.691Z,99857.06
2022-09-10T23:03:36.385Z,99861.78
2022-09-10T23:06:07.288Z,99861.53
2022-09-10T23:08:35.379Z,99857.75
2022-09-10T23:11:15.385Z,99859.66
2022-09-10T23:13:43.622Z,99870.78
2022-09-10T23:16:12.188Z,99856.38
2022-09-10T23:18:39.912Z,99863.91
2022-09-10T23:21:07.604Z,99860.75
2022-09-10T23:23:34.970Z,99865.38
2022-09-10T23:26:09.540Z,99865.88
2022-09-10T23:28:37.285Z,99862.09
2022-09-10T23:31:24.978Z,99853.69
2022-09-10T23:33:55.360Z,99854.81
2022-09-10T23:36:22.764Z,99853.22
2022-09-10T23:38:49.341Z,99847.78
2022-09-10T23:41:16.630Z,99845.22
2022-09-10T23:43:44.086Z,99849.28
2022-09-10T23:46:12.044Z,99853.53
2022-09-10T23:48:40.019Z,99850.44
2022-09-10T23:51:06.732Z,99848.88
2022-09-10T23:53:33.733Z,99848.56
2022-09-10T23:56:00.817Z,99849.59
2022-09-10T23:58:27.362Z,99852.56
